Time;durP1;ratioP1;P1;durP2;ratioP2;P2;SDS_P1;SDS_P2;PMS_P1;PMS_P2;Temp;Humidity;BMP_temperature;BMP_pressure;BME280_temperature;BME280_humidity;BME280_pressure;Samples;Min_cycle;Max_cycle;Signal;HPM_P1;HPM_P2
2022/12/25 00:03:12;;;;;;;28.27;12.27;;;;;;;9.12;100.00;101338.72;10362880;28;20065;-68
2022/12/25 00:08:13;;;;;;;25.55;11.95;;;;;;;9.14;100.00;101339.38;10379547;28;20041;-69
2022/12/25 00:13:13;;;;;;;20.30;13.27;;;;;;;9.13;100.00;101321.50;10363140;28;20077;-69
2022/12/25 00:18:13;;;;;;;36.58;11.55;;;;;;;9.13;100.00;101320.66;10380189;28;20124;-68
2022/12/25 00:23:14;;;;;;;26.55;11.80;;;;;;;9.15;100.00;101315.91;10379971;28;20041;-67
2022/12/25 00:28:14;;;;;;;23.42;12.55;;;;;;;9.06;100.00;101329.47;10380306;28;20473;-68
2022/12/25 00:33:15;;;;;;;22.58;12.35;;;;;;;9.06;100.00;101331.31;10379031;28;20038;-68
2022/12/25 00:38:15;;;;;;;31.00;12.57;;;;;;;9.19;100.00;101328.03;10378000;28;20038;-68
2022/12/25 00:43:16;;;;;;;25.75;11.40;;;;;;;9.23;100.00;101338.31;10378441;28;20088;-68
2022/12/25 00:48:16;;;;;;;32.47;12.05;;;;;;;9.23;100.00;101332.91;10377515;28;20071;-68
2022/12/25 00:53:16;;;;;;;28.05;13.43;;;;;;;9.20;100.00;101329.72;10377264;28;20054;-67
2022/12/25 00:58:17;;;;;;;23.25;11.85;;;;;;;9.19;100.00;101328.03;10377580;28;20426;-67
2022/12/25 01:03:17;;;;;;;24.83;13.93;;;;;;;9.27;100.00;101342.34;10377824;28;20053;-68
2022/12/25 01:08:18;;;;;;;30.58;14.10;;;;;;;9.26;100.00;101346.06;10377282;28;20092;-68
2022/12/25 01:13:18;;;;;;;15.23;10.50;;;;;;;9.21;100.00;101342.22;10377703;28;20405;-68
2022/12/25 01:18:19;;;;;;;29.13;13.82;;;;;;;9.24;100.00;101348.09;10377414;28;20168;-67
2022/12/25 01:23:20;;;;;;;22.45;12.50;;;;;;;9.23;100.00;101324.81;10394858;28;20532;-67
2022/12/25 01:28:20;;;;;;;20.13;14.50;;;;;;;9.21;100.00;101321.44;10380582;28;20121;-67
2022/12/25 01:33:20;;;;;;;27.35;13.98;;;;;;;9.24;100.00;101329.19;10380268;28;20441;-67
2022/12/25 01:38:21;;;;;;;26.52;12.52;;;;;;;9.25;100.00;101336.28;10403802;28;20041;-69
2022/12/25 01:43:26;;;;;;;21.95;15.60;;;;;;;9.28;100.00;101330.53;10402896;28;20045;-67
2022/12/25 01:48:32;;;;;;;27.95;16.00;;;;;;;9.29;100.00;101331.38;10390176;28;20033;-66
2022/12/25 01:53:32;;;;;;;18.95;15.65;;;;;;;9.28;100.00;101335.94;10394742;28;20067;-67
2022/12/25 01:58:33;;;;;;;19.13;13.63;;;;;;;9.32;100.00;101345.38;10404042;28;20038;-67
2022/12/25 02:03:33;;;;;;;24.05;15.32;;;;;;;9.31;100.00;101348.22;10388337;28;20042;-68
2022/12/25 02:08:34;;;;;;;23.20;16.17;;;;;;;9.41;100.00;101340.75;10399960;28;20034;-67
2022/12/25 02:13:34;;;;;;;20.65;14.65;;;;;;;9.43;100.00;101341.41;10406881;28;20034;-67
2022/12/25 02:18:50;;;;;;;26.40;12.55;;;;;;;9.49;100.00;101331.75;10390157;28;20378;-67
2022/12/25 02:24:24;;;;;;;24.35;13.20;;;;;;;9.48;100.00;101333.59;10370585;28;20378;-67
2022/12/25 02:29:32;;;;;;;22.00;13.95;;;;;;;9.45;100.00;101319.59;10368975;28;20046;-67
2022/12/25 02:35:00;;;;;;;19.25;12.77;;;;;;;9.45;100.00;101300.69;10375717;28;20036;-67
2022/12/25 02:40:04;;;;;;;20.23;13.43;;;;;;;9.37;100.00;101306.97;10377699;28;20050;-67
2022/12/25 03:06:44;;;;;;;28.20;19.92;;;;;;;9.49;100.00;101265.00;10373752;28;20037;-67
2022/12/25 03:11:45;;;;;;;27.07;18.10;;;;;;;9.47;100.00;101272.44;10381162;28;20489;-67
2022/12/25 03:16:49;;;;;;;24.45;16.63;;;;;;;9.50;100.00;101266.66;10381503;28;20033;-67
2022/12/25 03:27:08;;;;;;;24.02;14.63;;;;;;;9.60;100.00;101273.69;10367898;28;20073;-67
2022/12/25 03:32:09;;;;;;;28.05;16.25;;;;;;;9.54;100.00;101268.00;10381480;28;20057;-67
2022/12/25 04:36:07;;;;;;;36.17;17.40;;;;;;;9.14;100.00;101258.31;10378703;28;20470;-67
2022/12/25 04:41:09;;;;;;;21.92;16.98;;;;;;;9.20;100.00;101260.31;10379280;28;20033;-67
2022/12/25 04:46:09;;;;;;;20.70;15.88;;;;;;;9.26;100.00;101254.19;10361692;28;20509;-67
2022/12/25 04:51:15;;;;;;;20.98;12.60;;;;;;;9.27;100.00;101245.06;10379078;28;20065;-67
2022/12/25 04:56:15;;;;;;;17.67;12.05;;;;;;;9.23;100.00;101232.94;10378714;28;20044;-68
2022/12/25 05:01:16;;;;;;;11.45;8.98;;;;;;;9.14;100.00;101222.38;10394881;28;20374;-67
2022/12/25 05:06:16;;;;;;;16.33;8.68;;;;;;;9.19;100.00;101228.91;10378404;28;20107;-69
2022/12/25 05:11:17;;;;;;;16.73;9.45;;;;;;;9.24;100.00;101218.38;10379286;28;20041;-67
2022/12/25 05:16:18;;;;;;;20.65;8.10;;;;;;;9.23;100.00;101216.72;10378570;28;20124;-68
2022/12/25 05:21:18;;;;;;;17.65;8.68;;;;;;;9.29;100.00;101228.69;10377752;28;20111;-68
2022/12/25 05:26:23;;;;;;;15.10;7.85;;;;;;;9.28;100.00;101225.13;10378137;28;20096;-68
2022/12/25 05:31:23;;;;;;;19.23;9.45;;;;;;;9.34;100.00;101223.53;10391527;28;20466;-68
2022/12/25 05:36:23;;;;;;;15.68;9.60;;;;;;;9.29;100.00;101228.69;10376689;28;20045;-67
2022/12/25 05:41:24;;;;;;;14.65;9.23;;;;;;;9.34;100.00;101233.53;10377027;28;20037;-67
2022/12/25 05:46:24;;;;;;;21.95;10.55;;;;;;;9.28;100.00;101225.13;10376271;28;20506;-68
2022/12/25 05:51:25;;;;;;;12.05;9.93;;;;;;;9.25;100.00;101208.41;10376872;28;20116;-67
2022/12/25 05:56:25;;;;;;;19.67;11.93;;;;;;;9.23;100.00;101214.03;10376958;28;20045;-67
2022/12/25 06:01:26;;;;;;;17.52;11.10;;;;;;;9.12;100.00;101202.78;10374960;28;20378;-67
2022/12/25 06:06:27;;;;;;;19.13;13.55;;;;;;;9.11;100.00;101184.91;10376691;28;20034;-68
2022/12/25 06:11:27;;;;;;;19.92;13.88;;;;;;;9.13;100.00;101182.88;10376138;28;20474;-67
2022/12/25 06:16:27;;;;;;;23.45;16.55;;;;;;;9.11;100.00;101188.44;10376930;28;20080;-67
2022/12/25 06:21:28;;;;;;;25.90;17.45;;;;;;;9.12;100.00;101171.19;10374441;28;20038;-68
2022/12/25 06:26:28;;;;;;;31.50;19.05;;;;;;;9.12;100.00;101181.16;10375367;28;20428;-68
2022/12/25 06:31:28;;;;;;;27.85;17.80;;;;;;;9.08;100.00;101168.03;10375405;28;20041;-68
2022/12/25 06:36:29;;;;;;;26.58;18.42;;;;;;;9.08;100.00;101165.31;10358673;28;20038;-67
2022/12/25 06:41:29;;;;;;;25.65;18.08;;;;;;;9.13;100.00;101167.50;10374994;28;20113;-68
2022/12/25 06:46:30;;;;;;;24.17;16.98;;;;;;;9.13;100.00;101158.56;10374975;28;20042;-67
2022/12/25 06:51:30;;;;;;;22.38;17.85;;;;;;;9.06;100.00;101155.72;10375159;28;20050;-68
2022/12/25 06:56:32;;;;;;;32.72;20.75;;;;;;;9.10;100.00;101148.13;10374993;28;20045;-67
2022/12/25 07:01:54;;;;;;;44.72;23.33;;;;;;;9.16;100.00;101155.50;10373483;28;20041;-67
2022/12/25 07:06:55;;;;;;;30.08;19.73;;;;;;;9.18;100.00;101148.84;10342432;28;20092;-67
2022/12/25 07:12:13;;;;;;;30.13;22.00;;;;;;;9.16;100.00;101150.09;10374513;28;20418;-68
2022/12/25 07:17:17;;;;;;;36.88;21.65;;;;;;;9.15;100.00;101148.38;10373963;28;20041;-67
2022/12/25 07:22:18;;;;;;;40.42;24.95;;;;;;;9.18;100.00;101148.84;10374210;28;20034;-67
2022/12/25 07:27:18;;;;;;;40.75;26.88;;;;;;;9.22;100.00;101162.84;10374163;28;20041;-68
2022/12/25 07:32:18;;;;;;;35.83;24.50;;;;;;;9.21;100.00;101180.91;10373496;28;20034;-67
2022/12/25 07:37:19;;;;;;;35.50;22.42;;;;;;;9.26;100.00;101170.41;10374552;28;20386;-68
2022/12/25 07:42:19;;;;;;;30.75;19.52;;;;;;;9.26;100.00;101173.13;10372725;28;20030;-67
2022/12/25 07:47:19;;;;;;;26.00;17.60;;;;;;;9.32;100.00;101167.00;10358260;28;20038;-68
2022/12/25 07:52:20;;;;;;;28.92;18.10;;;;;;;9.36;100.00;101175.56;10376218;28;20356;-68
2022/12/25 07:57:20;;;;;;;24.95;15.48;;;;;;;9.35;100.00;101181.13;10381938;28;20050;-68
2022/12/25 08:02:27;;;;;;;35.33;20.05;;;;;;;9.35;100.00;101176.59;10382600;28;20071;-67
2022/12/25 08:07:27;;;;;;;35.67;21.67;;;;;;;9.38;100.00;101181.63;10381438;28;20030;-68
2022/12/25 08:12:27;;;;;;;34.63;20.05;;;;;;;9.37;100.00;101195.31;10379637;28;20100;-68
2022/12/25 08:17:28;;;;;;;27.02;16.58;;;;;;;9.34;100.00;101182.19;10378695;28;20108;-68
2022/12/25 08:22:28;;;;;;;29.27;17.10;;;;;;;9.28;100.00;101172.94;10380972;28;20490;-67
2022/12/25 08:27:29;;;;;;;28.33;15.43;;;;;;;9.24;100.00;101177.03;10379745;28;20084;-68
2022/12/25 08:32:31;;;;;;;32.20;15.48;;;;;;;9.16;100.00;101166.31;10379563;28;20034;-67
2022/12/25 08:37:31;;;;;;;21.85;13.02;;;;;;;9.16;100.00;101177.09;10380341;28;20038;-68
2022/12/25 08:42:32;;;;;;;35.58;18.33;;;;;;;9.20;100.00;101181.13;10378503;28;20026;-67
2022/12/25 08:47:32;;;;;;;27.25;17.23;;;;;;;9.28;100.00;101176.50;10379122;28;20476;-67
2022/12/25 08:52:33;;;;;;;28.00;16.33;;;;;;;9.29;100.00;101188.97;10379590;28;20061;-68
2022/12/25 08:57:33;;;;;;;21.67;15.98;;;;;;;9.37;100.00;101184.50;10377172;28;20132;-67
2022/12/25 09:02:33;;;;;;;20.25;11.20;;;;;;;9.45;100.00;101195.25;10378503;28;20041;-67
2022/12/25 09:07:34;;;;;;;11.57;9.07;;;;;;;9.51;100.00;101214.28;10377411;28;20038;-69
2022/12/25 09:12:34;;;;;;;10.82;7.47;;;;;;;9.58;100.00;101224.38;10378681;28;20406;-68
2022/12/25 09:17:34;;;;;;;6.85;5.85;;;;;;;9.54;100.00;101210.38;10379125;28;20125;-68
2022/12/25 09:22:35;;;;;;;17.42;6.88;;;;;;;9.48;100.00;101208.41;10378337;28;20044;-68
2022/12/25 09:27:35;;;;;;;8.15;6.78;;;;;;;9.47;100.00;101207.53;10376963;28;20486;-68
2022/12/25 09:32:39;;;;;;;8.35;6.97;;;;;;;9.46;100.00;101200.47;10379148;28;20034;-68
2022/12/25 09:37:39;;;;;;;14.30;9.05;;;;;;;9.43;100.00;101187.31;10377808;28;20078;-68
2022/12/25 09:42:39;;;;;;;11.68;8.48;;;;;;;9.41;100.00;101181.28;10376735;28;20096;-67
2022/12/25 09:47:41;;;;;;;12.88;10.02;;;;;;;9.39;100.00;101172.50;10391970;28;20466;-69
2022/12/25 09:52:56;;;;;;;10.43;9.07;;;;;;;9.38;100.00;101165.44;10360149;28;20057;-68
2022/12/25 09:57:57;;;;;;;12.38;10.27;;;;;;;9.33;100.00;101173.22;10375069;28;20141;-69
2022/12/25 10:03:19;;;;;;;11.77;9.23;;;;;;;9.34;100.00;101164.09;10357997;28;20026;-68
2022/12/25 10:08:47;;;;;;;14.73;10.30;;;;;;;9.33;100.00;101165.13;10374929;28;20038;-68
2022/12/25 10:13:47;;;;;;;16.73;11.27;;;;;;;9.31;100.00;101164.44;10392280;28;20034;-69
2022/12/25 10:19:03;;;;;;;16.52;9.88;;;;;;;9.28;100.00;101160.28;10374921;28;20057;-67
2022/12/25 10:24:24;;;;;;;14.77;10.93;;;;;;;9.28;100.00;101160.28;10390558;28;20038;-66
2022/12/25 10:29:25;;;;;;;16.52;10.07;;;;;;;9.29;100.00;101144.91;10375726;28;20029;-67
2022/12/25 10:34:26;;;;;;;19.75;10.10;;;;;;;9.27;100.00;101163.16;10357567;28;20030;-66
2022/12/25 10:39:27;;;;;;;16.30;9.90;;;;;;;9.25;100.00;101148.97;10373227;28;20053;-70
2022/12/25 10:44:27;;;;;;;10.60;7.97;;;;;;;9.26;100.00;101127.19;10372929;28;20446;-67
2022/12/25 10:49:35;;;;;;;14.02;10.05;;;;;;;9.30;100.00;101106.88;10373105;28;20061;-68
2022/12/25 10:54:36;;;;;;;11.07;8.73;;;;;;;9.34;100.00;101101.09;10373002;28;20030;-66
2022/12/25 10:59:50;;;;;;;15.45;9.05;;;;;;;9.37;100.00;101088.03;10375451;28;20466;-67
2022/12/25 11:04:51;;;;;;;10.27;8.95;;;;;;;9.34;100.00;101087.59;10389863;28;20030;-67
2022/12/25 11:09:53;;;;;;;14.95;9.07;;;;;;;9.30;100.00;101079.00;10374264;28;20378;-68
2022/12/25 11:14:55;;;;;;;13.15;9.35;;;;;;;9.35;100.00;101068.50;10388619;28;20451;-68
2022/12/25 11:19:59;;;;;;;9.35;8.25;;;;;;;9.31;100.00;101083.38;10372830;28;20066;-67
2022/12/25 11:25:13;;;;;;;15.63;8.95;;;;;;;9.28;100.00;101072.94;10372387;28;20490;-68
2022/12/25 11:30:14;;;;;;;17.10;7.93;;;;;;;9.19;100.00;101074.03;10360739;28;20025;-68
2022/12/25 11:35:16;;;;;;;11.50;9.13;;;;;;;9.10;100.00;101059.78;10380519;28;20462;-67
2022/12/25 11:40:28;;;;;;;17.02;11.10;;;;;;;9.10;100.00;101075.16;10397170;28;20455;-68
2022/12/25 11:45:31;;;;;;;10.75;8.52;;;;;;;9.12;100.00;101054.19;10366576;28;20034;-68
2022/12/25 11:50:33;;;;;;;16.17;9.15;;;;;;;9.15;100.00;101051.97;10379883;28;20103;-69
2022/12/25 11:55:45;;;;;;;13.80;10.73;;;;;;;9.13;100.00;101005.41;10363176;28;20110;-66
2022/12/25 12:00:46;;;;;;;9.85;8.85;;;;;;;9.24;100.00;100994.09;10420891;28;20041;-67
2022/12/25 12:06:04;;;;;;;19.05;12.75;;;;;;;9.26;100.00;101010.16;10453588;28;20044;-65
2022/12/25 12:11:18;;;;;;;13.90;10.73;;;;;;;9.20;100.00;101005.50;10420223;28;20033;-67
2022/12/25 12:16:18;;;;;;;10.63;9.57;;;;;;;9.19;100.00;101003.78;10403492;28;20533;-67
2022/12/25 12:21:19;;;;;;;19.02;13.23;;;;;;;9.18;100.00;101011.06;10436716;28;20091;-67
2022/12/25 12:26:21;;;;;;;14.20;11.50;;;;;;;9.18;100.00;101011.06;10420475;28;20041;-68
2022/12/25 12:31:22;;;;;;;12.57;10.98;;;;;;;9.17;100.00;101009.41;10419775;28;20033;-68
2022/12/25 12:36:25;;;;;;;20.48;13.88;;;;;;;9.17;100.00;100995.88;10436759;28;20037;-67
2022/12/25 12:41:46;;;;;;;16.38;11.45;;;;;;;9.15;100.00;100970.06;10418783;28;20128;-67
2022/12/25 12:46:55;;;;;;;15.70;11.38;;;;;;;9.11;100.00;100964.22;10421158;28;20026;-67
2022/12/25 12:52:05;;;;;;;19.52;13.07;;;;;;;9.08;100.00;100943.81;10418092;28;20164;-67
2022/12/25 12:57:20;;;;;;;13.98;12.50;;;;;;;9.06;100.00;100940.47;10420006;28;20037;-66
2022/12/25 13:02:36;;;;;;;13.60;11.55;;;;;;;9.10;100.00;100932.81;10432999;28;20549;-67
2022/12/25 13:07:50;;;;;;;16.63;11.43;;;;;;;9.10;100.00;100934.69;10419217;28;20357;-69
2022/12/25 13:12:55;;;;;;;16.85;12.02;;;;;;;9.13;100.00;100945.13;10418717;28;20121;-67
2022/12/25 13:17:59;;;;;;;11.45;10.25;;;;;;;9.14;100.00;100936.81;10418115;28;20044;-67
2022/12/25 13:23:00;;;;;;;17.23;11.80;;;;;;;9.14;100.00;100941.38;10416715;28;20030;-67
2022/12/25 13:28:00;;;;;;;16.60;13.02;;;;;;;9.16;100.00;100937.47;10418232;28;20124;-68
2022/12/25 13:33:01;;;;;;;15.70;13.05;;;;;;;9.19;100.00;100947.06;10417370;28;20420;-68
2022/12/25 13:38:02;;;;;;;11.88;9.85;;;;;;;9.17;100.00;100951.81;10417065;28;20073;-67
2022/12/25 13:43:02;;;;;;;1.83;1.73;;;;;;;9.16;100.00;100944.75;10449735;28;20034;-67
2022/12/25 13:48:13;;;;;;;2.80;2.70;;;;;;;9.15;100.00;100943.88;10449577;28;20120;-68
2022/12/25 13:53:15;;;;;;;0.30;0.30;;;;;;;9.15;100.00;100949.28;10431618;28;20054;-70
2022/12/25 13:58:28;;;;;;;0.70;0.70;;;;;;;9.09;100.00;100939.22;10433005;28;20037;-69
2022/12/25 14:03:42;;;;;;;1.70;1.70;;;;;;;9.08;100.00;100930.28;10415120;28;20048;-69
2022/12/25 14:08:42;;;;;;;1.08;1.08;;;;;;;9.10;100.00;100934.69;10416430;28;20028;-70
2022/12/25 14:13:43;;;;;;;0.50;0.50;;;;;;;9.11;100.00;100933.66;10448800;28;20354;-71
2022/12/25 14:18:54;;;;;;;4.40;4.03;;;;;;;9.11;100.00;100922.84;10431352;28;20401;-69
2022/12/25 14:23:55;;;;;;;0.32;0.32;;;;;;;9.12;100.00;100913.72;10417198;28;20033;-72
2022/12/25 14:29:04;;;;;;;1.33;1.33;;;;;;;9.12;100.00;100919.94;10415688;28;20026;-70
2022/12/25 14:34:09;;;;;;;3.78;3.47;;;;;;;9.11;100.00;100914.75;10430922;28;20026;-70
2022/12/25 14:39:28;;;;;;;0.40;0.40;;;;;;;9.08;100.00;100927.59;10414050;28;20026;-69
2022/12/25 14:44:37;;;;;;;0.80;0.80;;;;;;;9.08;100.00;100911.38;10414774;28;20036;-68
2022/12/25 14:49:38;;;;;;;0.82;0.77;;;;;;;9.11;100.00;100925.56;10414843;28;20073;-67
2022/12/25 14:54:38;;;;;;;1.83;1.83;;;;;;;9.11;100.00;100926.38;10415406;28;20064;-68
2022/12/25 14:59:39;;;;;;;1.35;1.02;;;;;;;9.16;100.00;100931.25;10415858;28;20076;-68
2022/12/25 15:04:41;;;;;;;1.13;1.13;;;;;;;9.18;100.00;100923.78;10415789;28;20040;-68
2022/12/25 15:09:42;;;;;;;0.52;0.52;;;;;;;9.18;100.00;100930.00;10424232;28;20025;-68
2022/12/25 15:14:42;;;;;;;1.70;1.63;;;;;;;9.21;100.00;100918.81;10423437;28;20048;-68
2022/12/25 15:19:43;;;;;;;2.10;1.90;;;;;;;9.19;100.00;100920.91;10438577;28;20428;-68
2022/12/25 15:24:43;;;;;;;5.10;3.92;;;;;;;9.17;100.00;100908.59;10423545;28;20079;-66
2022/12/25 15:29:44;;;;;;;2.03;1.95;;;;;;;9.19;100.00;100918.19;10423657;28;20457;-66
2022/12/25 15:34:45;;;;;;;0.77;0.77;;;;;;;9.18;100.00;100912.97;10383392;28;20046;-66
2022/12/25 15:39:46;;;;;;;1.88;1.00;;;;;;;9.16;100.00;100904.22;10423381;28;20041;-67
2022/12/25 15:44:46;;;;;;;1.48;1.00;;;;;;;9.15;100.00;100894.44;10422338;28;20037;-66
2022/12/25 15:49:47;;;;;;;1.75;1.65;;;;;;;9.13;100.00;100894.63;10422134;28;20072;-66
2022/12/25 15:54:48;;;;;;;3.08;2.35;;;;;;;9.08;100.00;100872.72;10422754;28;20025;-67
2022/12/25 15:59:48;;;;;;;0.57;0.57;;;;;;;9.08;100.00;100884.38;10420703;28;20600;-66
2022/12/25 16:04:49;;;;;;;0.40;0.40;;;;;;;9.03;100.00;100877.84;10420412;28;20050;-66
2022/12/25 16:09:50;;;;;;;1.45;1.45;;;;;;;9.03;100.00;100875.16;10420353;28;20464;-66
2022/12/25 16:14:51;;;;;;;0.95;0.88;;;;;;;9.01;100.00;100879.91;10420986;28;20120;-66
2022/12/25 16:19:51;;;;;;;2.10;1.98;;;;;;;8.94;100.00;100869.03;10421189;28;20121;-66
2022/12/25 16:24:52;;;;;;;3.20;2.40;;;;;;;8.93;100.00;100872.75;10421461;28;20029;-66
2022/12/25 16:29:53;;;;;;;2.00;1.98;;;;;;;8.93;100.00;100882.72;10422105;28;20057;-67
2022/12/25 16:34:53;;;;;;;0.82;0.82;;;;;;;8.88;100.00;100880.59;10421047;28;20080;-66
2022/12/25 16:39:53;;;;;;;0.50;0.50;;;;;;;8.86;100.00;100885.31;10420152;28;20033;-66
2022/12/25 16:44:54;;;;;;;4.35;2.00;;;;;;;8.89;100.00;100884.94;10420518;28;20417;-67
2022/12/25 16:49:54;;;;;;;5.18;2.92;;;;;;;8.92;100.00;100887.28;10420503;28;20119;-66
2022/12/25 16:54:56;;;;;;;1.77;1.77;;;;;;;8.97;100.00;100887.56;10420150;28;20053;-66
2022/12/25 16:59:57;;;;;;;1.33;1.33;;;;;;;9.03;100.00;100891.34;10419178;28;20061;-67
2022/12/25 17:04:58;;;;;;;1.25;1.25;;;;;;;9.08;100.00;100889.78;10417748;28;20052;-67
2022/12/25 17:09:58;;;;;;;1.98;1.95;;;;;;;9.13;100.00;100880.28;10419246;28;20041;-66
2022/12/25 17:14:58;;;;;;;0.60;0.60;;;;;;;9.10;100.00;100886.06;10419822;28;20428;-67
2022/12/25 17:19:59;;;;;;;2.83;1.88;;;;;;;9.09;100.00;100885.19;10419386;28;20045;-68
2022/12/25 17:24:59;;;;;;;0.30;0.30;;;;;;;9.10;100.00;100880.66;10420233;28;20072;-68
2022/12/25 17:30:00;;;;;;;3.03;2.92;;;;;;;9.12;100.00;100884.00;10419220;28;20315;-67
2022/12/25 17:35:00;;;;;;;0.32;0.32;;;;;;;9.14;100.00;100882.78;10420214;28;20029;-66
2022/12/25 17:40:01;;;;;;;1.92;1.85;;;;;;;9.10;100.00;100892.31;10424031;28;20041;-66
2022/12/25 17:45:01;;;;;;;1.35;1.35;;;;;;;9.15;100.00;100886.31;10418197;28;20034;-66
2022/12/25 17:50:02;;;;;;;0.75;0.75;;;;;;;9.17;100.00;100895.09;10418044;28;20041;-67
2022/12/25 17:55:03;;;;;;;4.25;3.95;;;;;;;9.18;100.00;100875.13;10417372;28;20041;-68
2022/12/25 18:00:05;;;;;;;1.55;1.52;;;;;;;9.18;100.00;100885.94;10432823;28;20119;-67
2022/12/25 18:05:06;;;;;;;3.35;3.15;;;;;;;9.17;100.00;100868.06;10420052;28;20037;-67
2022/12/25 18:10:07;;;;;;;1.17;1.17;;;;;;;9.19;100.00;100857.88;10419731;28;20041;-67
2022/12/25 18:15:08;;;;;;;1.10;1.10;;;;;;;9.22;100.00;100874.59;10424310;28;20424;-68
2022/12/25 18:20:09;;;;;;;1.02;1.02;;;;;;;9.24;100.00;100888.72;10426556;28;20048;-68
2022/12/25 18:25:09;;;;;;;3.90;3.70;;;;;;;9.25;100.00;100908.47;10430465;28;20041;-67
2022/12/25 18:30:10;;;;;;;0.50;0.50;;;;;;;9.25;100.00;100900.38;10425794;28;20061;-67
2022/12/25 18:35:10;;;;;;;1.63;1.63;;;;;;;9.25;100.00;100909.34;10418929;28;20444;-67
2022/12/25 18:40:10;;;;;;;0.55;0.55;;;;;;;9.26;100.00;100910.16;10416050;28;20060;-67
2022/12/25 18:45:12;;;;;;;0.75;0.75;;;;;;;9.22;100.00;100904.31;10416412;28;20474;-67
2022/12/25 18:50:13;;;;;;;0.40;0.40;;;;;;;9.21;100.00;100910.72;10424280;28;20054;-67
2022/12/25 18:55:13;;;;;;;1.90;1.85;;;;;;;9.18;100.00;100899.47;10422478;28;20030;-68
2022/12/25 19:00:14;;;;;;;7.10;2.15;;;;;;;9.19;100.00;100891.19;10422046;28;20041;-68
2022/12/25 19:05:14;;;;;;;2.80;2.70;;;;;;;9.17;100.00;100873.47;10404723;28;20091;-68
2022/12/25 19:10:15;;;;;;;0.85;0.85;;;;;;;9.14;100.00;100879.25;10423658;28;20076;-68
2022/12/25 19:15:15;;;;;;;1.20;1.20;;;;;;;9.10;100.00;100876.09;10420027;28;20042;-67
2022/12/25 19:20:15;;;;;;;1.77;1.67;;;;;;;9.10;100.00;100886.06;10433675;28;20025;-67
2022/12/25 19:25:17;;;;;;;1.85;1.85;;;;;;;9.10;100.00;100895.00;10414234;28;20465;-66
2022/12/25 19:30:17;;;;;;;1.13;1.13;;;;;;;9.16;100.00;100915.03;10431061;28;20035;-67
2022/12/25 19:35:18;;;;;;;2.05;1.33;;;;;;;9.19;100.00;100903.81;10415384;28;20040;-67
2022/12/25 19:40:18;;;;;;;2.78;2.63;;;;;;;9.18;100.00;100904.84;10414346;28;20045;-66
2022/12/25 19:45:20;;;;;;;0.98;0.98;;;;;;;9.16;100.00;100907.75;10414859;28;20045;-67
2022/12/25 19:50:20;;;;;;;1.85;1.85;;;;;;;9.15;100.00;100894.44;10417053;28;20058;-66
2022/12/25 19:55:21;;;;;;;0.73;0.73;;;;;;;9.15;100.00;100907.94;10422948;28;20030;-66
2022/12/25 20:00:21;;;;;;;2.92;2.83;;;;;;;9.12;100.00;100903.75;10423102;28;20135;-67
2022/12/25 20:05:22;;;;;;;2.33;2.22;;;;;;;9.13;100.00;100912.72;10422280;28;20419;-66
2022/12/25 20:10:22;;;;;;;2.25;2.05;;;;;;;9.13;100.00;100904.59;10422709;28;20038;-67
2022/12/25 20:15:22;;;;;;;1.20;1.20;;;;;;;9.17;100.00;100892.38;10437845;28;20084;-67
2022/12/25 20:20:23;;;;;;;1.10;1.10;;;;;;;9.17;100.00;100893.22;10420888;28;20124;-66
2022/12/25 20:25:24;;;;;;;0.80;0.80;;;;;;;9.12;100.00;100902.91;10423727;28;20044;-66
2022/12/25 20:30:24;;;;;;;3.78;3.10;;;;;;;9.15;100.00;100905.22;10423337;28;20033;-67
2022/12/25 20:35:25;;;;;;;2.00;1.92;;;;;;;9.14;100.00;100912.50;10442271;28;20037;-66
2022/12/25 20:40:25;;;;;;;1.52;1.52;;;;;;;9.09;100.00;100896.00;10428229;28;20466;-70
2022/12/25 20:45:25;;;;;;;0.80;0.80;;;;;;;9.01;100.00;100910.47;10440617;28;20432;-67
2022/12/25 20:50:26;;;;;;;0.50;0.50;;;;;;;9.02;100.00;100912.13;10427288;28;20076;-70
2022/12/25 20:55:26;;;;;;;0.52;0.52;;;;;;;8.98;100.00;100912.72;10426252;28;20034;-67
2022/12/25 21:00:27;;;;;;;1.13;1.13;;;;;;;8.93;100.00;100913.25;10420742;28;20087;-66
2022/12/25 21:05:27;;;;;;;4.80;3.33;;;;;;;8.89;100.00;100916.53;10420964;28;20044;-67
2022/12/25 21:10:27;;;;;;;5.80;4.40;;;;;;;8.86;100.00;100931.22;10426029;28;20099;-68
2022/12/25 21:15:28;;;;;;;4.15;3.85;;;;;;;8.88;100.00;100941.84;10426406;28;20041;-68
2022/12/25 21:20:28;;;;;;;0.98;0.98;;;;;;;8.84;100.00;100942.22;10427832;28;20176;-68
2022/12/25 21:25:29;;;;;;;1.27;1.23;;;;;;;8.85;100.00;100959.25;10428676;28;20041;-67
2022/12/25 21:30:29;;;;;;;0.47;0.47;;;;;;;8.82;100.00;100948.84;10426561;28;20029;-67
2022/12/25 21:35:30;;;;;;;3.35;2.38;;;;;;;8.83;100.00;100950.50;10429201;28;20053;-66
2022/12/25 21:40:32;;;;;;;1.20;1.20;;;;;;;8.87;100.00;100956.38;10446297;28;20450;-67
2022/12/25 21:45:33;;;;;;;1.45;1.23;;;;;;;8.87;100.00;100948.25;10426369;28;20484;-67
2022/12/25 21:56:00;;;;;;;2.85;2.67;;;;;;;8.91;100.00;100930.69;10418186;28;20037;-67
2022/12/25 22:01:02;;;;;;;0.80;0.80;;;;;;;8.93;100.00;100928.63;10417146;28;20033;-66
2022/12/25 22:22:00;;;;;;;0.98;0.98;;;;;;;8.96;100.00;100939.06;10415493;28;20073;-66
2022/12/25 22:27:00;;;;;;;4.35;1.60;;;;;;;8.96;100.00;100933.66;10416066;28;20061;-74
2022/12/25 22:32:01;;;;;;;1.38;1.38;;;;;;;8.99;100.00;100920.59;10416359;28;20424;-67
2022/12/25 22:37:01;;;;;;;0.50;0.50;;;;;;;9.00;100.00;100932.28;10415021;28;20115;-67
2022/12/25 22:42:02;;;;;;;0.73;0.73;;;;;;;9.00;100.00;100910.66;10416571;28;20036;-67
2022/12/25 22:47:02;;;;;;;1.17;1.17;;;;;;;9.01;100.00;100918.56;10416599;28;20129;-67
2022/12/25 22:52:02;;;;;;;3.08;1.85;;;;;;;9.03;100.00;100923.78;10415548;28;20451;-67
2022/12/25 22:57:03;;;;;;;2.03;1.92;;;;;;;9.01;100.00;100940.19;10416230;28;20148;-66
2022/12/25 23:02:04;;;;;;;2.78;2.55;;;;;;;9.03;100.00;100921.94;10417072;28;20052;-67
2022/12/25 23:07:05;;;;;;;2.85;2.65;;;;;;;9.02;100.00;100914.84;10415617;28;20128;-66
2022/12/25 23:12:05;;;;;;;0.47;0.47;;;;;;;9.02;100.00;100912.13;10415423;28;20033;-66
2022/12/25 23:26:06;;;;;;;0.75;0.75;;;;;;;8.96;100.00;100915.56;10415310;28;20060;-66
2022/12/25 23:27:47;;;;;;;0.70;0.70;;;;;;;8.99;100.00;100928.72;10421224;28;20112;-66
2022/12/25 23:32:47;;;;;;;0.60;0.60;;;;;;;8.98;100.00;100929.75;10425224;28;20030;-67
2022/12/25 23:37:51;;;;;;;1.73;1.73;;;;;;;8.99;100.00;100942.22;10438328;28;20393;-67
2022/12/25 23:42:52;;;;;;;1.25;1.25;;;;;;;8.97;100.00;100943.44;10422722;28;20381;-68
2022/12/25 23:47:52;;;;;;;2.58;2.38;;;;;;;8.99;100.00;100960.28;10422630;28;20041;-67
2022/12/25 23:52:53;;;;;;;1.50;1.50;;;;;;;8.93;100.00;100961.84;10438185;28;20469;-66
2022/12/25 23:57:53;;;;;;;1.33;1.33;;;;;;;8.95;100.00;100956.28;10421847;28;20045;-67
